createdAt,value
2022-08-17T00:00:43.835Z,20.11
2022-08-17T00:03:29.364Z,20.95
2022-08-17T00:06:11.840Z,21.37
2022-08-17T00:08:45.688Z,21.64
2022-08-17T00:11:26.495Z,21.94
2022-08-17T00:14:02.931Z,21.75
2022-08-17T00:16:55.440Z,21.95
2022-08-17T00:19:28.152Z,22.26
2022-08-17T00:22:32.177Z,22.41
2022-08-17T00:24:52.544Z,22.47
2022-08-17T00:27:22.893Z,22.43
2022-08-17T00:29:53.685Z,22.60
2022-08-17T00:33:13.958Z,22.27
2022-08-17T00:35:17.336Z,22.60
2022-08-17T00:37:47.529Z,22.64
2022-08-17T00:40:19.048Z,22.27
2022-08-17T00:42:50.118Z,22.08
2022-08-17T00:45:21.582Z,22.39
2022-08-17T00:47:51.702Z,22.68
2022-08-17T00:50:22.359Z,22.65
2022-08-17T00:52:56.915Z,22.73
2022-08-17T00:55:28.484Z,22.53
2022-08-17T00:58:01.846Z,22.63
2022-08-17T01:00:41.419Z,22.76
2022-08-17T01:03:23.344Z,22.49
2022-08-17T01:05:57.342Z,22.81
2022-08-17T01:08:30.424Z,22.67
2022-08-17T01:11:06.476Z,22.69
2022-08-17T01:13:41.429Z,22.11
2022-08-17T01:16:20.942Z,22.03
2022-08-17T01:18:54.655Z,21.68
2022-08-17T01:21:44.044Z,21.64
2022-08-17T01:24:14.251Z,22.23
2022-08-17T01:26:46.220Z,22.62
2022-08-17T01:29:16.509Z,22.26
2022-08-17T01:31:55.091Z,22.67
2022-08-17T01:34:39.873Z,22.91
2022-08-17T01:37:17.582Z,23.07
2022-08-17T01:39:55.924Z,23.23
2022-08-17T01:42:46.740Z,23.31
2022-08-17T01:45:25.503Z,23.39
2022-08-17T01:47:56.647Z,23.45
2022-08-17T01:50:31.848Z,23.55
2022-08-17T01:53:10.514Z,23.66
2022-08-17T01:55:47.304Z,23.73
2022-08-17T01:58:18.525Z,23.85
2022-08-17T02:01:00.324Z,23.80
2022-08-17T02:03:32.582Z,23.86
2022-08-17T02:06:03.539Z,23.72
2022-08-17T02:08:38.690Z,23.81
2022-08-17T02:11:15.827Z,23.88
2022-08-17T02:13:46.926Z,23.95
2022-08-17T02:16:17.946Z,23.83
2022-08-17T02:18:49.844Z,23.84
2022-08-17T02:21:20.562Z,23.82
2022-08-17T02:23:54.540Z,23.81
2022-08-17T02:26:27.803Z,23.84
2022-08-17T02:28:58.365Z,23.72
2022-08-17T02:31:27.996Z,23.84
2022-08-17T02:34:03.452Z,23.55
2022-08-17T02:36:37.970Z,22.74
2022-08-17T02:39:11.703Z,22.47
2022-08-17T02:41:42.514Z,23.13
2022-08-17T02:44:13.352Z,23.40
2022-08-17T02:47:03.724Z,23.41
2022-08-17T02:49:34.326Z,23.33
2022-08-17T02:52:05.120Z,23.43
2022-08-17T02:54:41.632Z,23.45
2022-08-17T02:57:12.870Z,23.41
2022-08-17T02:59:48.796Z,23.38
2022-08-17T03:02:19.220Z,22.93
2022-08-17T03:04:49.743Z,22.61
2022-08-17T03:07:21.395Z,22.61
2022-08-17T03:09:51.923Z,21.48
2022-08-17T03:12:21.599Z,21.95
2022-08-17T03:14:51.531Z,20.64
2022-08-17T03:17:22.168Z,20.89
2022-08-17T03:19:52.325Z,20.48
2022-08-17T03:22:36.750Z,20.33
2022-08-17T03:25:13.128Z,19.94
2022-08-17T03:27:51.439Z,19.61
2022-08-17T03:30:23.673Z,20.44
2022-08-17T03:32:58.982Z,20.71
2022-08-17T03:35:32.906Z,19.60
2022-08-17T03:38:04.812Z,19.37
2022-08-17T03:40:56.260Z,19.16
2022-08-17T03:43:25.801Z,20.40
2022-08-17T03:46:34.045Z,21.07
2022-08-17T03:49:24.908Z,21.43
2022-08-17T03:52:14.959Z,21.70
2022-08-17T03:55:05.326Z,22.10
2022-08-17T03:57:35.542Z,22.07
2022-08-17T04:00:07.089Z,21.51
2022-08-17T04:02:41.690Z,22.17
2022-08-17T04:05:12.305Z,21.14
2022-08-17T04:07:42.364Z,20.53
2022-08-17T04:10:12.994Z,20.84
2022-08-17T04:12:50.670Z,22.12
2022-08-17T04:15:21.330Z,22.30
2022-08-17T04:17:54.035Z,22.13
2022-08-17T04:20:25.769Z,22.26
2022-08-17T04:23:03.852Z,22.64
2022-08-17T04:25:37.699Z,22.91
2022-08-17T04:28:15.794Z,22.86
2022-08-17T04:30:48.890Z,23.17
2022-08-17T04:33:23.089Z,23.00
2022-08-17T04:35:56.945Z,22.51
2022-08-17T04:38:29.524Z,20.90
2022-08-17T04:41:19.482Z,21.31
2022-08-17T04:43:51.025Z,21.00
2022-08-17T04:46:23.592Z,21.16
2022-08-17T04:48:57.240Z,20.80
2022-08-17T04:51:29.348Z,21.07
2022-08-17T04:54:02.930Z,21.26
2022-08-17T04:56:33.877Z,21.97
2022-08-17T04:59:17.610Z,22.49
2022-08-17T05:01:51.111Z,22.48
2022-08-17T05:04:34.522Z,22.38
2022-08-17T05:07:05.995Z,22.56
2022-08-17T05:09:36.160Z,22.82
2022-08-17T05:12:07.362Z,22.83
2022-08-17T05:14:39.876Z,22.52
2022-08-17T05:17:11.252Z,22.48
2022-08-17T05:19:42.796Z,22.41
2022-08-17T05:22:13.396Z,22.71
2022-08-17T05:24:53.467Z,22.00
2022-08-17T05:27:27.903Z,22.48
2022-08-17T05:30:05.555Z,22.26
2022-08-17T05:32:39.509Z,22.12
2022-08-17T05:35:10.915Z,21.95
2022-08-17T05:37:42.372Z,21.99
2022-08-17T05:40:13.007Z,21.69
2022-08-17T05:42:44.194Z,22.18
2022-08-17T05:45:16.961Z,22.13
2022-08-17T05:48:08.440Z,21.91
2022-08-17T05:50:52.070Z,22.11
2022-08-17T05:53:41.562Z,22.13
2022-08-17T05:56:30.098Z,21.00
2022-08-17T05:59:22.198Z,20.13
2022-08-17T06:02:09.253Z,19.49
2022-08-17T06:05:01.620Z,19.01
2022-08-17T06:07:50.200Z,18.98
2022-08-17T06:10:32.820Z,18.89
2022-08-17T06:13:19.940Z,18.90
2022-08-17T06:16:33.376Z,18.72
2022-08-17T06:19:07.247Z,18.80
2022-08-17T06:21:42.674Z,18.70
2022-08-17T06:24:26.382Z,18.32
2022-08-17T06:26:58.798Z,18.32
2022-08-17T06:29:48.249Z,18.52
2022-08-17T06:32:18.828Z,18.36
2022-08-17T06:34:49.451Z,18.51
2022-08-17T06:37:51.716Z,18.29
2022-08-17T06:40:21.842Z,18.17
2022-08-17T06:43:15.137Z,18.74
2022-08-17T06:45:53.776Z,18.56
2022-08-17T06:48:36.588Z,18.70
2022-08-17T06:51:38.860Z,18.41
2022-08-17T06:54:26.220Z,18.38
2022-08-17T06:57:29.451Z,18.58
2022-08-17T07:00:05.385Z,18.42
2022-08-17T07:03:02.882Z,18.22
2022-08-17T07:05:43.929Z,18.00
2022-08-17T07:08:39.223Z,17.92
2022-08-17T07:11:16.974Z,17.75
2022-08-17T07:13:52.466Z,18.42
2022-08-17T07:16:47.854Z,18.54
2022-08-17T07:19:20.253Z,17.94
2022-08-17T07:21:57.064Z,17.77
2022-08-17T07:25:03.279Z,17.96
2022-08-17T07:27:42.291Z,18.72
2022-08-17T07:30:30.364Z,19.09
2022-08-17T07:33:14.230Z,18.97
2022-08-17T07:35:49.303Z,18.24
2022-08-17T07:38:26.922Z,19.31
2022-08-17T07:41:09.248Z,19.62
2022-08-17T07:43:42.624Z,19.24
2022-08-17T07:46:54.934Z,20.04
2022-08-17T07:49:35.169Z,20.10
2022-08-17T07:52:47.550Z,19.81
2022-08-17T07:55:28.787Z,20.13
2022-08-17T07:58:01.207Z,20.84
2022-08-17T08:00:33.404Z,20.57
2022-08-17T08:03:14.589Z,20.41
2022-08-17T08:05:53.758Z,20.68
2022-08-17T08:08:31.938Z,20.71
2022-08-17T08:11:10.006Z,21.08
2022-08-17T08:13:44.705Z,21.00
2022-08-17T08:16:27.590Z,19.90
2022-08-17T08:19:00.845Z,19.55
2022-08-17T08:22:00.343Z,20.52
2022-08-17T08:24:51.179Z,19.99
2022-08-17T08:27:31.024Z,20.65
2022-08-17T08:30:17.144Z,20.11
2022-08-17T08:33:08.815Z,19.61
2022-08-17T08:35:48.032Z,19.15
2022-08-17T08:38:48.519Z,18.58
2022-08-17T08:41:27.357Z,18.21
2022-08-17T08:44:12.295Z,18.24
2022-08-17T08:47:19.558Z,19.19
2022-08-17T08:50:31.782Z,19.02
2022-08-17T08:53:27.432Z,19.66
2022-08-17T08:56:18.022Z,20.13
2022-08-17T08:58:55.952Z,20.61
2022-08-17T09:01:55.221Z,20.83
2022-08-17T09:05:12.883Z,20.42
2022-08-17T09:08:05.563Z,21.11
2022-08-17T09:10:48.959Z,21.30
2022-08-17T09:13:23.236Z,21.39
2022-08-17T09:16:17.050Z,21.10
2022-08-17T09:19:00.640Z,21.37
2022-08-17T09:21:47.710Z,21.49
2022-08-17T09:24:38.984Z,20.71
2022-08-17T09:27:26.965Z,21.31
2022-08-17T09:30:04.243Z,21.40
2022-08-17T09:32:45.979Z,19.92
2022-08-17T09:35:24.957Z,20.13
2022-08-17T09:38:36.301Z,19.86
2022-08-17T09:41:29.898Z,20.51
2022-08-17T09:44:23.272Z,20.43
2022-08-17T09:47:12.473Z,19.77
2022-08-17T09:49:50.736Z,19.86
2022-08-17T09:52:30.160Z,19.97
2022-08-17T09:55:02.616Z,19.37
2022-08-17T09:58:10.587Z,19.62
2022-08-17T10:00:50.445Z,20.10
2022-08-17T10:03:36.249Z,19.57
2022-08-17T10:06:09.553Z,19.96
2022-08-17T10:09:07.822Z,20.32
2022-08-17T10:12:12.499Z,20.46
2022-08-17T10:15:09.592Z,20.31
2022-08-17T10:18:00.482Z,20.41
2022-08-17T10:21:18.938Z,18.61
2022-08-17T10:24:14.355Z,20.49
2022-08-17T10:26:56.411Z,18.47
2022-08-17T10:29:47.537Z,18.61
2022-08-17T10:32:42.659Z,18.76
2022-08-17T10:35:20.310Z,19.37
2022-08-17T10:38:16.577Z,18.53
2022-08-17T10:40:59.532Z,19.98
2022-08-17T10:43:35.989Z,19.95
2022-08-17T10:46:30.863Z,20.59
2022-08-17T10:49:22.146Z,20.76
2022-08-17T10:51:56.035Z,21.12
2022-08-17T10:54:26.653Z,20.68
2022-08-17T10:56:58.881Z,19.95
2022-08-17T10:59:38.575Z,20.78
2022-08-17T11:02:36.177Z,20.71
2022-08-17T11:05:33.598Z,20.92
2022-08-17T11:08:38.795Z,19.04
2022-08-17T11:12:08.555Z,20.35
2022-08-17T11:14:52.464Z,20.48
2022-08-17T11:17:23.110Z,19.36
2022-08-17T11:19:56.154Z,19.90
2022-08-17T11:23:00.231Z,20.75
2022-08-17T11:25:46.196Z,21.36
2022-08-17T11:28:27.839Z,21.43
2022-08-17T11:31:09.214Z,21.67
2022-08-17T11:33:46.235Z,21.39
2022-08-17T11:36:34.707Z,20.88
2022-08-17T11:39:31.526Z,21.70
2022-08-17T11:42:22.734Z,21.90
2022-08-17T11:45:09.714Z,21.24
2022-08-17T11:48:27.095Z,21.43
2022-08-17T11:51:36.107Z,22.10
2022-08-17T11:57:22.678Z,22.54
2022-08-17T12:00:15.997Z,21.39
2022-08-17T12:02:50.084Z,22.85
2022-08-17T12:05:24.063Z,21.19
2022-08-17T12:08:15.891Z,22.79
2022-08-17T12:10:59.625Z,22.92
2022-08-17T12:13:39.352Z,23.43
2022-08-17T12:16:15.200Z,23.34
2022-08-17T12:19:24.885Z,23.60
2022-08-17T12:22:21.094Z,23.79
2022-08-17T12:25:35.713Z,24.05
2022-08-17T12:28:08.068Z,24.12
2022-08-17T12:30:39.872Z,24.58
2022-08-17T12:33:27.976Z,24.50
2022-08-17T12:36:03.970Z,24.83
2022-08-17T12:38:39.466Z,25.17
2022-08-17T12:41:30.074Z,25.34
2022-08-17T12:44:03.212Z,24.57
2022-08-17T12:46:48.209Z,24.17
2022-08-17T12:49:36.806Z,24.80
2022-08-17T12:52:24.817Z,25.14
2022-08-17T12:55:00.656Z,25.63
2022-08-17T12:57:41.336Z,26.17
2022-08-17T13:00:26.594Z,26.50
2022-08-17T13:03:04.565Z,26.87
2022-08-17T13:05:44.700Z,27.08
2022-08-17T13:08:19.520Z,27.28
2022-08-17T13:11:03.587Z,27.49
2022-08-17T13:13:40.423Z,27.17
2022-08-17T13:16:32.593Z,26.93
2022-08-17T13:19:15.469Z,26.72
2022-08-17T13:21:57.614Z,28.18
2022-08-17T13:24:37.843Z,29.21
2022-08-17T13:27:13.469Z,29.70
2022-08-17T13:29:52.909Z,29.63
2022-08-17T13:32:46.638Z,30.09
2022-08-17T13:35:39.358Z,29.25
2022-08-17T13:38:37.011Z,29.72
2022-08-17T13:41:08.657Z,29.77
2022-08-17T13:43:49.529Z,29.67
2022-08-17T13:46:22.133Z,30.58
2022-08-17T13:49:19.776Z,31.38
2022-08-17T13:51:53.228Z,32.20
2022-08-17T13:54:36.975Z,31.84
2022-08-17T13:57:22.016Z,32.54
2022-08-17T13:59:59.277Z,32.16
2022-08-17T14:02:30.286Z,33.00
2022-08-17T14:05:01.959Z,33.64
2022-08-17T14:07:40.039Z,34.17
2022-08-17T14:10:18.864Z,34.66
2022-08-17T14:12:51.314Z,35.01
2022-08-17T14:15:54.760Z,34.44
2022-08-17T14:18:49.865Z,34.96
2022-08-17T14:21:11.805Z,34.81
2022-08-17T14:23:49.016Z,35.21
2022-08-17T14:26:24.932Z,34.91
2022-08-17T14:28:56.473Z,34.67
2022-08-17T14:31:28.714Z,33.93
2022-08-17T14:34:00.128Z,33.95
2022-08-17T14:36:30.288Z,34.00
2022-08-17T14:39:01.040Z,35.35
2022-08-17T14:41:31.495Z,35.37
2022-08-17T14:44:03.127Z,35.95
2022-08-17T14:46:33.884Z,36.48
2022-08-17T14:49:04.557Z,36.62
2022-08-17T14:51:34.964Z,36.59
2022-08-17T14:54:33.461Z,36.75
2022-08-17T14:57:24.536Z,36.62
2022-08-17T15:00:07.180Z,33.91
2022-08-17T15:02:50.406Z,34.71
2022-08-17T15:05:22.143Z,33.32
2022-08-17T15:07:53.874Z,32.96
2022-08-17T15:10:25.847Z,33.73
2022-08-17T15:12:57.345Z,32.73
2022-08-17T15:15:29.240Z,34.74
2022-08-17T15:18:00.958Z,35.14
2022-08-17T15:20:32.265Z,34.27
2022-08-17T15:23:02.630Z,34.99
2022-08-17T15:25:34.519Z,33.49
2022-08-17T15:28:04.768Z,34.03
2022-08-17T15:30:35.518Z,34.51
2022-08-17T15:33:06.078Z,35.42
2022-08-17T15:35:37.220Z,35.80
2022-08-17T15:38:12.124Z,37.19
2022-08-17T15:40:47.328Z,37.81
2022-08-17T15:43:27.577Z,37.61
2022-08-17T15:46:02.253Z,35.99
2022-08-17T15:48:43.034Z,34.86
2022-08-17T15:51:26.919Z,34.51
2022-08-17T15:54:04.499Z,34.06
2022-08-17T15:56:50.031Z,32.16
2022-08-17T15:59:20.513Z,33.29
2022-08-17T16:03:13.293Z,32.84
2022-08-17T16:04:44.081Z,31.74
2022-08-17T16:07:19.345Z,32.22
2022-08-17T16:09:52.473Z,31.64
2022-08-17T16:12:23.698Z,31.39
2022-08-17T16:14:57.349Z,32.64
2022-08-17T16:17:39.258Z,32.02
2022-08-17T16:20:20.037Z,32.80
2022-08-17T16:22:52.602Z,32.02
2022-08-17T16:25:47.153Z,33.47
2022-08-17T16:28:21.798Z,34.11
2022-08-17T16:30:52.017Z,34.47
2022-08-17T16:33:22.614Z,35.53
2022-08-17T16:35:52.757Z,35.80
2022-08-17T16:38:22.866Z,34.05
2022-08-17T16:40:53.431Z,35.34
2022-08-17T16:43:24.196Z,34.30
2022-08-17T16:45:55.348Z,34.94
2022-08-17T16:48:25.966Z,33.90
2022-08-17T16:51:03.142Z,35.72
2022-08-17T16:53:34.732Z,37.74
2022-08-17T16:56:06.238Z,38.52
2022-08-17T16:58:36.996Z,38.47
2022-08-17T17:01:10.862Z,36.07
2022-08-17T17:03:47.884Z,34.70
2022-08-17T17:06:33.832Z,34.41
2022-08-17T17:09:09.409Z,35.77
2022-08-17T17:11:39.996Z,36.12
2022-08-17T17:14:39.143Z,37.14
2022-08-17T17:17:19.587Z,36.85
2022-08-17T17:20:11.219Z,36.73
2022-08-17T17:23:16.639Z,37.47
2022-08-17T17:25:57.713Z,38.91
2022-08-17T17:29:02.758Z,35.44
2022-08-17T17:31:48.607Z,37.29
2022-08-17T17:34:19.587Z,37.48
2022-08-17T17:36:58.002Z,36.74
2022-08-17T17:39:44.150Z,38.03
2022-08-17T17:42:20.072Z,37.36
2022-08-17T17:45:09.129Z,36.40
2022-08-17T17:47:40.619Z,37.49
2022-08-17T17:50:11.217Z,38.89
2022-08-17T17:53:16.929Z,39.74
2022-08-17T17:56:33.087Z,39.42
2022-08-17T17:59:12.853Z,39.00
2022-08-17T18:02:39.947Z,40.22
2022-08-17T18:05:35.441Z,41.10
2022-08-17T18:08:57.004Z,41.28
2022-08-17T18:11:58.979Z,40.64
2022-08-17T18:14:46.071Z,39.79
2022-08-17T18:17:16.751Z,39.79
2022-08-17T18:19:49.449Z,36.92
2022-08-17T18:22:22.638Z,39.50
2022-08-17T18:24:57.022Z,37.49
2022-08-17T18:27:39.062Z,38.69
2022-08-17T18:30:28.439Z,40.16
2022-08-17T18:33:27.703Z,40.41
2022-08-17T18:35:58.502Z,38.43
2022-08-17T18:38:36.815Z,39.61
2022-08-17T18:41:19.483Z,39.33
2022-08-17T18:44:17.747Z,37.69
2022-08-17T18:46:47.960Z,37.55
2022-08-17T18:49:21.738Z,37.68
2022-08-17T18:52:16.175Z,38.25
2022-08-17T18:55:04.967Z,37.52
2022-08-17T18:57:39.763Z,36.23
2022-08-17T19:00:36.909Z,36.62
2022-08-17T19:03:19.425Z,36.54
2022-08-17T19:06:31.393Z,34.11
2022-08-17T19:09:02.282Z,32.70
2022-08-17T19:11:37.219Z,32.11
2022-08-17T19:14:12.213Z,31.49
2022-08-17T19:16:48.167Z,31.19
2022-08-17T19:19:22.431Z,30.96
2022-08-17T19:22:00.137Z,30.54
2022-08-17T19:24:33.022Z,31.90
2022-08-17T19:27:41.852Z,31.79
2022-08-17T19:30:18.380Z,33.69
2022-08-17T19:32:49.547Z,32.10
2022-08-17T19:35:21.427Z,30.89
2022-08-17T19:38:28.022Z,30.36
2022-08-17T19:41:01.076Z,30.70
2022-08-17T19:43:49.027Z,32.28
2022-08-17T19:46:49.970Z,33.19
2022-08-17T19:49:41.027Z,33.26
2022-08-17T19:52:41.764Z,33.28
2022-08-17T19:55:37.600Z,30.72
2022-08-17T19:58:25.020Z,30.27
2022-08-17T20:00:56.731Z,32.23
2022-08-17T20:03:39.775Z,30.06
2022-08-17T20:06:14.049Z,29.41
2022-08-17T20:08:56.732Z,29.19
2022-08-17T20:11:38.706Z,29.14
2022-08-17T20:14:26.587Z,28.66
2022-08-17T20:17:01.943Z,28.12
2022-08-17T20:19:46.941Z,27.96
2022-08-17T20:22:31.132Z,29.13
2022-08-17T20:25:07.543Z,27.59
2022-08-17T20:28:20.696Z,27.16
2022-08-17T20:30:52.258Z,26.88
2022-08-17T20:33:39.847Z,27.10
2022-08-17T20:36:25.437Z,27.37
2022-08-17T20:38:59.680Z,27.30
2022-08-17T20:41:32.356Z,27.72
2022-08-17T20:44:06.671Z,27.68
2022-08-17T20:46:39.700Z,27.56
2022-08-17T20:49:21.949Z,27.24
2022-08-17T20:52:03.904Z,27.89
2022-08-17T20:54:51.902Z,27.73
2022-08-17T20:57:34.590Z,27.42
2022-08-17T21:00:29.826Z,27.60
2022-08-17T21:03:23.961Z,27.51
2022-08-17T21:06:17.272Z,27.04
2022-08-17T21:08:55.928Z,27.64
2022-08-17T21:12:03.404Z,27.07
2022-08-17T21:14:24.902Z,26.83
2022-08-17T21:17:43.111Z,27.65
2022-08-17T21:20:36.061Z,27.76
2022-08-17T21:23:41.508Z,27.80
2022-08-17T21:26:34.654Z,27.88
2022-08-17T21:29:32.592Z,27.99
2022-08-17T21:32:07.557Z,27.98
2022-08-17T21:34:45.179Z,27.97
2022-08-17T21:37:24.430Z,27.92
2022-08-17T21:39:59.564Z,28.00
2022-08-17T21:42:35.919Z,27.90
2022-08-17T21:45:22.350Z,28.13
2022-08-17T21:48:10.002Z,28.07
2022-08-17T21:50:43.176Z,28.15
2022-08-17T21:53:33.066Z,28.21
2022-08-17T21:56:04.432Z,28.27
2022-08-17T21:58:42.882Z,28.30
2022-08-17T22:01:23.221Z,28.33
2022-08-17T22:04:01.472Z,28.30
2022-08-17T22:06:42.919Z,28.19
2022-08-17T22:09:32.927Z,28.23
2022-08-17T22:12:08.722Z,28.26
2022-08-17T22:14:52.847Z,28.24
2022-08-17T22:17:31.312Z,28.10
2022-08-17T22:20:19.105Z,27.99
2022-08-17T22:23:13.564Z,27.66
2022-08-17T22:26:09.728Z,27.38
2022-08-17T22:28:50.563Z,26.98
2022-08-17T22:31:22.502Z,27.41
2022-08-17T22:34:02.091Z,26.98
2022-08-17T22:36:35.655Z,27.08
2022-08-17T22:39:11.946Z,27.33
2022-08-17T22:41:55.061Z,26.51
2022-08-17T22:44:33.510Z,26.56
2022-08-17T22:47:11.315Z,27.12
2022-08-17T22:49:53.969Z,27.46
2022-08-17T22:52:32.119Z,27.56
2022-08-17T22:55:26.739Z,27.66
2022-08-17T22:58:15.302Z,27.08
2022-08-17T23:00:49.427Z,26.86
2022-08-17T23:03:26.029Z,26.75
2022-08-17T23:06:09.466Z,26.67
2022-08-17T23:08:58.784Z,26.57
2022-08-17T23:11:36.797Z,26.41
2022-08-17T23:14:17.347Z,26.12
2022-08-17T23:16:50.117Z,26.01
2022-08-17T23:19:22.514Z,26.07
2022-08-17T23:21:53.687Z,26.54
2022-08-17T23:24:27.504Z,26.78
2022-08-17T23:26:59.271Z,27.03
2022-08-17T23:29:30.485Z,27.26
2022-08-17T23:32:02.401Z,27.46
2022-08-17T23:34:32.875Z,27.55
2022-08-17T23:37:05.401Z,27.76
2022-08-17T23:39:36.176Z,27.05
2022-08-17T23:42:12.442Z,26.60
2022-08-17T23:44:44.726Z,26.83
2022-08-17T23:47:14.697Z,27.30
2022-08-17T23:49:44.643Z,27.45
2022-08-17T23:52:17.546Z,27.46
2022-08-17T23:54:49.346Z,27.56
2022-08-17T23:57:33.803Z,27.64
